createdAt,value
2018-07-12T00:00:22.461Z,989.18
2018-07-12T00:01:22.611Z,989.18
2018-07-12T00:02:22.766Z,989.18
2018-07-12T00:03:22.917Z,989.18
2018-07-12T00:04:23.072Z,989.20
2018-07-12T00:05:23.224Z,989.19
2018-07-12T00:06:23.379Z,989.21
2018-07-12T00:07:23.530Z,989.22
2018-07-12T00:08:23.684Z,989.24
2018-07-12T00:09:23.836Z,989.23
2018-07-12T00:10:23.991Z,989.19
2018-07-12T00:11:24.140Z,989.22
2018-07-12T00:12:24.295Z,989.23
2018-07-12T00:13:24.447Z,989.23
2018-07-12T00:14:24.599Z,989.21
2018-07-12T00:15:24.751Z,989.18
2018-07-12T00:16:24.902Z,989.18
2018-07-12T00:17:25.058Z,989.18
2018-07-12T00:18:25.211Z,989.19
2018-07-12T00:19:25.365Z,989.15
2018-07-12T00:20:25.516Z,989.16
2018-07-12T00:21:25.670Z,989.18
2018-07-12T00:22:25.826Z,989.18
2018-07-12T00:23:25.984Z,989.21
2018-07-12T00:24:26.133Z,989.21
2018-07-12T00:25:26.285Z,989.23
2018-07-12T00:26:26.436Z,989.22
2018-07-12T00:27:26.587Z,989.27
2018-07-12T00:28:26.742Z,989.28
2018-07-12T00:29:26.894Z,989.32
2018-07-12T00:30:27.047Z,989.31
2018-07-12T00:31:27.198Z,989.24
2018-07-12T00:32:27.350Z,989.23
2018-07-12T00:33:27.504Z,989.22
2018-07-12T00:34:27.657Z,989.24
2018-07-12T00:35:27.808Z,989.19
2018-07-12T00:36:27.961Z,989.24
2018-07-12T00:37:28.115Z,989.22
2018-07-12T00:38:28.272Z,989.24
2018-07-12T00:39:28.420Z,989.21
2018-07-12T00:40:28.572Z,989.22
2018-07-12T00:41:28.726Z,989.13
2018-07-12T00:42:28.878Z,989.15
2018-07-12T00:43:29.029Z,989.20
2018-07-12T00:44:29.182Z,989.20
2018-07-12T00:45:29.336Z,989.24
2018-07-12T00:46:29.490Z,989.25
2018-07-12T00:47:29.641Z,989.22
2018-07-12T00:48:29.792Z,989.21
2018-07-12T00:49:29.942Z,989.25
2018-07-12T00:50:30.096Z,989.29
2018-07-12T00:51:30.247Z,989.29
2018-07-12T00:52:30.407Z,989.32
2018-07-12T00:53:30.585Z,989.34
2018-07-12T00:54:30.708Z,989.33
2018-07-12T00:55:30.866Z,989.37
2018-07-12T00:56:31.020Z,989.38
2018-07-12T00:57:31.173Z,989.38
2018-07-12T00:58:31.323Z,989.41
2018-07-12T00:59:31.475Z,989.37
2018-07-12T01:00:31.627Z,989.35
2018-07-12T01:01:31.781Z,989.40
2018-07-12T01:02:31.934Z,989.39
2018-07-12T01:03:32.083Z,989.40
2018-07-12T01:04:32.237Z,989.40
2018-07-12T01:05:32.392Z,989.40
2018-07-12T01:06:32.543Z,989.44
2018-07-12T01:07:32.698Z,989.37
2018-07-12T01:08:32.848Z,989.40
2018-07-12T01:09:33.003Z,989.38
2018-07-12T01:10:33.155Z,989.36
2018-07-12T01:11:33.310Z,989.38
2018-07-12T01:12:33.466Z,989.34
2018-07-12T01:13:33.613Z,989.37
2018-07-12T01:14:33.766Z,989.34
2018-07-12T01:15:33.920Z,989.31
2018-07-12T01:16:34.073Z,989.30
2018-07-12T01:17:34.224Z,989.30
2018-07-12T01:18:34.377Z,989.28
2018-07-12T01:19:34.529Z,989.33
2018-07-12T01:20:34.685Z,989.30
2018-07-12T01:21:34.848Z,989.33
2018-07-12T01:22:35.000Z,989.32
2018-07-12T01:23:35.155Z,989.34
2018-07-12T01:24:35.307Z,989.34
2018-07-12T01:25:35.460Z,989.34
2018-07-12T01:26:35.614Z,989.34
2018-07-12T01:27:35.766Z,989.33
2018-07-12T01:28:35.920Z,989.32
2018-07-12T01:29:36.073Z,989.29
2018-07-12T01:30:36.223Z,989.31
2018-07-12T01:31:36.376Z,989.33
2018-07-12T01:32:36.529Z,989.31
2018-07-12T01:33:36.681Z,989.30
2018-07-12T01:34:36.832Z,989.31
2018-07-12T01:35:36.985Z,989.30
2018-07-12T01:36:37.137Z,989.28
2018-07-12T01:37:37.291Z,989.23
2018-07-12T01:38:37.443Z,989.28
2018-07-12T01:39:37.594Z,989.27
2018-07-12T01:40:37.746Z,989.31
2018-07-12T01:41:37.900Z,989.31
2018-07-12T01:42:38.052Z,989.35
2018-07-12T01:43:38.204Z,989.30
2018-07-12T01:44:38.359Z,989.35
2018-07-12T01:45:38.511Z,989.29
2018-07-12T01:46:38.664Z,989.25
2018-07-12T01:47:38.815Z,989.26
2018-07-12T01:48:38.969Z,989.21
2018-07-12T01:49:39.119Z,989.23
2018-07-12T01:50:39.273Z,989.24
2018-07-12T01:51:39.428Z,989.23
2018-07-12T01:52:39.578Z,989.29
2018-07-12T01:53:39.734Z,989.32
2018-07-12T01:54:39.884Z,989.34
2018-07-12T01:55:40.037Z,989.42
2018-07-12T01:56:40.190Z,989.49
2018-07-12T01:57:40.342Z,989.53
2018-07-12T01:58:40.494Z,989.59
2018-07-12T01:59:40.646Z,989.56
2018-07-12T02:00:40.803Z,989.54
2018-07-12T02:01:40.954Z,989.55
2018-07-12T02:02:41.102Z,989.50
2018-07-12T02:03:41.254Z,989.45
2018-07-12T02:04:41.407Z,989.45
2018-07-12T02:05:41.557Z,989.46
2018-07-12T02:06:41.712Z,989.44
2018-07-12T02:07:41.863Z,989.44
2018-07-12T02:08:42.017Z,989.46
2018-07-12T02:09:42.170Z,989.45
2018-07-12T02:10:42.323Z,989.44
2018-07-12T02:11:42.475Z,989.50
2018-07-12T02:12:42.627Z,989.52
2018-07-12T02:13:42.779Z,989.57
2018-07-12T02:14:42.929Z,989.55
2018-07-12T02:15:43.083Z,989.52
2018-07-12T02:16:43.239Z,989.50
2018-07-12T02:17:43.392Z,989.49
2018-07-12T02:18:43.543Z,989.45
2018-07-12T02:19:43.696Z,989.48
2018-07-12T02:20:43.849Z,989.45
2018-07-12T02:21:44.003Z,989.48
2018-07-12T02:22:44.153Z,989.45
2018-07-12T02:23:44.305Z,989.47
2018-07-12T02:24:44.457Z,989.47
2018-07-12T02:25:44.607Z,989.44
2018-07-12T02:26:44.759Z,989.42
2018-07-12T02:27:44.921Z,989.40
2018-07-12T02:28:45.067Z,989.43
2018-07-12T02:29:45.218Z,989.47
2018-07-12T02:30:45.370Z,989.51
2018-07-12T02:31:45.525Z,989.53
2018-07-12T02:32:45.678Z,989.57
2018-07-12T02:33:45.830Z,989.53
2018-07-12T02:34:45.983Z,989.54
2018-07-12T02:35:46.133Z,989.53
2018-07-12T02:36:46.286Z,989.51
2018-07-12T02:37:46.440Z,989.49
2018-07-12T02:38:46.590Z,989.48
2018-07-12T02:39:46.745Z,989.48
2018-07-12T02:40:46.899Z,989.50
2018-07-12T02:41:47.048Z,989.43
2018-07-12T02:42:47.200Z,989.47
2018-07-12T02:43:47.355Z,989.54
2018-07-12T02:44:47.508Z,989.47
2018-07-12T02:45:47.659Z,989.52
2018-07-12T02:46:47.813Z,989.50
2018-07-12T02:47:47.963Z,989.50
2018-07-12T02:48:48.117Z,989.49
2018-07-12T02:49:48.269Z,989.47
2018-07-12T02:50:48.423Z,989.47
2018-07-12T02:51:48.574Z,989.46
2018-07-12T02:52:48.727Z,989.45
2018-07-12T02:53:48.881Z,989.47
2018-07-12T02:54:49.037Z,989.45
2018-07-12T02:55:49.189Z,989.51
2018-07-12T02:56:49.340Z,989.51
2018-07-12T02:57:49.495Z,989.52
2018-07-12T02:58:49.645Z,989.54
2018-07-12T02:59:49.797Z,989.55
2018-07-12T03:00:49.947Z,989.61
2018-07-12T03:01:50.100Z,989.64
2018-07-12T03:02:50.254Z,989.61
2018-07-12T03:03:50.412Z,989.60
2018-07-12T03:04:50.557Z,989.60
2018-07-12T03:05:50.709Z,989.63
2018-07-12T03:06:50.870Z,989.63
2018-07-12T03:07:51.016Z,989.64
2018-07-12T03:08:51.168Z,989.63
2018-07-12T03:09:51.319Z,989.67
2018-07-12T03:10:51.471Z,989.61
2018-07-12T03:11:51.627Z,989.66
2018-07-12T03:12:51.779Z,989.64
2018-07-12T03:13:51.932Z,989.66
2018-07-12T03:14:52.086Z,989.64
2018-07-12T03:15:52.239Z,989.68
2018-07-12T03:16:52.396Z,989.65
2018-07-12T03:17:52.542Z,989.65
2018-07-12T03:18:52.702Z,989.66
2018-07-12T03:19:52.850Z,989.63
2018-07-12T03:20:53.000Z,989.66
2018-07-12T03:21:53.155Z,989.64
2018-07-12T03:22:53.308Z,989.67
2018-07-12T03:23:53.457Z,989.69
2018-07-12T03:24:53.612Z,989.68
2018-07-12T03:25:53.763Z,989.71
2018-07-12T03:26:53.918Z,989.72
2018-07-12T03:27:54.072Z,989.69
2018-07-12T03:28:54.221Z,989.71
2018-07-12T03:29:54.379Z,989.70
2018-07-12T03:30:54.528Z,989.70
2018-07-12T03:31:54.680Z,989.73
2018-07-12T03:32:54.829Z,989.75
2018-07-12T03:33:54.983Z,989.77
2018-07-12T03:34:55.135Z,989.76
2018-07-12T03:35:55.288Z,989.74
2018-07-12T03:36:55.441Z,989.76
2018-07-12T03:37:55.592Z,989.74
2018-07-12T03:38:55.749Z,989.75
2018-07-12T03:39:55.897Z,989.75
2018-07-12T03:40:56.053Z,989.76
2018-07-12T03:41:56.207Z,989.70
2018-07-12T03:42:56.356Z,989.73
2018-07-12T03:43:56.509Z,989.77
2018-07-12T03:44:56.661Z,989.71
2018-07-12T03:45:56.815Z,989.71
2018-07-12T03:46:56.967Z,989.68
2018-07-12T03:47:57.119Z,989.71
2018-07-12T03:48:57.362Z,989.67
2018-07-12T03:49:57.399Z,989.70
2018-07-12T03:50:57.553Z,989.66
2018-07-12T03:51:57.707Z,989.66
2018-07-12T03:52:57.859Z,989.67
2018-07-12T03:53:58.014Z,989.68
2018-07-12T03:54:58.169Z,989.67
2018-07-12T03:55:58.323Z,989.62
2018-07-12T03:56:58.475Z,989.60
2018-07-12T03:57:58.650Z,989.63
2018-07-12T03:58:58.779Z,989.60
2018-07-12T03:59:58.934Z,989.60
2018-07-12T04:00:59.086Z,989.64
2018-07-12T04:01:59.238Z,989.64
2018-07-12T04:02:59.394Z,989.63
2018-07-12T04:03:59.552Z,989.65
2018-07-12T04:04:59.703Z,989.59
2018-07-12T04:05:59.854Z,989.64
2018-07-12T04:07:00.026Z,989.70
2018-07-12T04:08:00.159Z,989.68
2018-07-12T04:09:00.312Z,989.70
2018-07-12T04:10:00.465Z,989.72
2018-07-12T04:11:00.697Z,989.73
2018-07-12T04:12:00.777Z,989.72
2018-07-12T04:13:00.928Z,989.77
2018-07-12T04:14:01.086Z,989.79
2018-07-12T04:15:01.237Z,989.80
2018-07-12T04:16:01.393Z,989.83
2018-07-12T04:17:01.544Z,989.82
2018-07-12T04:18:01.697Z,989.82
2018-07-12T04:19:01.852Z,989.83
2018-07-12T04:20:02.006Z,989.81
2018-07-12T04:21:02.163Z,989.82
2018-07-12T04:22:02.318Z,989.85
2018-07-12T04:23:02.468Z,989.82
2018-07-12T04:24:02.623Z,989.85
2018-07-12T04:25:02.781Z,989.87
2018-07-12T04:26:02.933Z,989.88
2018-07-12T04:27:03.085Z,989.90
2018-07-12T04:28:03.238Z,989.88
2018-07-12T04:29:03.389Z,989.95
2018-07-12T04:30:03.542Z,989.95
2018-07-12T04:31:03.696Z,989.96
2018-07-12T04:32:03.852Z,989.99
2018-07-12T04:33:04.005Z,989.95
2018-07-12T04:34:04.159Z,989.92
2018-07-12T04:35:04.313Z,989.96
2018-07-12T04:36:04.468Z,989.98
2018-07-12T04:37:04.618Z,990.07
2018-07-12T04:38:04.775Z,990.12
2018-07-12T04:39:04.990Z,990.07
2018-07-12T04:40:05.080Z,990.09
2018-07-12T04:41:05.222Z,990.12
2018-07-12T04:42:05.373Z,990.11
2018-07-12T04:43:05.530Z,990.06
2018-07-12T04:44:05.671Z,990.10
2018-07-12T04:45:05.827Z,990.05
2018-07-12T04:46:05.979Z,990.08
2018-07-12T04:47:06.181Z,990.06
2018-07-12T04:48:06.293Z,990.08
2018-07-12T04:49:06.429Z,990.07
2018-07-12T04:50:06.585Z,990.09
2018-07-12T04:51:06.787Z,990.07
2018-07-12T04:52:06.891Z,990.04
2018-07-12T04:53:07.042Z,990.09
2018-07-12T04:54:07.206Z,990.09
2018-07-12T04:55:07.359Z,990.10
2018-07-12T04:56:07.510Z,990.12
2018-07-12T04:57:07.665Z,990.08
2018-07-12T04:58:07.845Z,990.13
2018-07-12T04:59:07.978Z,990.14
2018-07-12T05:00:08.127Z,990.15
2018-07-12T05:01:08.280Z,990.14
2018-07-12T05:02:08.432Z,990.13
2018-07-12T05:03:08.585Z,990.08
2018-07-12T05:04:08.737Z,990.02
2018-07-12T05:05:08.893Z,990.01
2018-07-12T05:06:09.044Z,990.00
2018-07-12T05:07:09.198Z,989.98
2018-07-12T05:08:09.403Z,990.02
2018-07-12T05:09:09.505Z,990.03
2018-07-12T05:10:09.658Z,989.97
2018-07-12T05:11:09.812Z,989.98
2018-07-12T05:12:09.965Z,989.99
2018-07-12T05:13:10.119Z,990.00
2018-07-12T05:14:10.270Z,990.01
2018-07-12T05:15:10.423Z,990.05
2018-07-12T05:16:10.634Z,990.09
2018-07-12T05:17:10.732Z,990.08
2018-07-12T05:18:10.885Z,990.08
2018-07-12T05:19:11.041Z,990.08
2018-07-12T05:20:11.194Z,990.08
2018-07-12T05:21:11.348Z,990.09
2018-07-12T05:22:11.502Z,990.15
2018-07-12T05:23:11.655Z,990.15
2018-07-12T05:24:11.810Z,990.15
2018-07-12T05:25:11.967Z,990.13
2018-07-12T05:26:12.117Z,990.17
2018-07-12T05:27:12.270Z,990.17
2018-07-12T05:28:12.426Z,990.17
2018-07-12T05:29:12.579Z,990.14
2018-07-12T05:30:12.732Z,990.13
2018-07-12T05:31:12.887Z,990.20
2018-07-12T05:32:13.041Z,990.19
2018-07-12T05:33:13.195Z,990.20
2018-07-12T05:34:13.346Z,990.21
2018-07-12T05:35:13.502Z,990.23
2018-07-12T05:36:13.657Z,990.23
2018-07-12T05:37:13.811Z,990.27
2018-07-12T05:38:13.964Z,990.25
2018-07-12T05:39:14.171Z,990.25
2018-07-12T05:40:14.275Z,990.27
2018-07-12T05:41:14.429Z,990.31
2018-07-12T05:42:14.583Z,990.29
2018-07-12T05:43:14.741Z,990.34
2018-07-12T05:44:14.895Z,990.30
2018-07-12T05:45:15.049Z,990.32
2018-07-12T05:46:15.205Z,990.29
2018-07-12T05:47:15.358Z,990.28
2018-07-12T05:48:15.514Z,990.27
2018-07-12T05:49:15.668Z,990.32
2018-07-12T05:50:15.825Z,990.29
2018-07-12T05:51:15.976Z,990.33
2018-07-12T05:52:16.131Z,990.30
2018-07-12T05:53:16.288Z,990.32
2018-07-12T05:54:16.441Z,990.35
2018-07-12T05:55:16.597Z,990.36
2018-07-12T05:56:16.749Z,990.35
2018-07-12T05:57:16.907Z,990.35
2018-07-12T05:58:17.059Z,990.37
2018-07-12T05:59:17.217Z,990.38
2018-07-12T06:00:17.369Z,990.39
2018-07-12T06:01:17.523Z,990.40
2018-07-12T06:02:17.679Z,990.40
2018-07-12T06:03:17.833Z,990.44
2018-07-12T06:04:17.992Z,990.43
2018-07-12T06:05:18.142Z,990.43
2018-07-12T06:06:18.298Z,990.47
2018-07-12T06:07:18.451Z,990.43
2018-07-12T06:08:18.606Z,990.47
2018-07-12T06:09:18.761Z,990.47
2018-07-12T06:10:18.916Z,990.46
2018-07-12T06:11:19.072Z,990.49
2018-07-12T06:12:19.228Z,990.50
2018-07-12T06:13:19.418Z,990.50
2018-07-12T06:14:19.536Z,990.51
2018-07-12T06:15:19.692Z,990.48
2018-07-12T06:16:19.849Z,990.49
2018-07-12T06:17:20.004Z,990.50
2018-07-12T06:18:20.158Z,990.49
2018-07-12T06:19:20.310Z,990.48
2018-07-12T06:20:20.467Z,990.48
2018-07-12T06:21:20.624Z,990.46
2018-07-12T06:22:20.769Z,990.48
2018-07-12T06:23:20.923Z,990.47
2018-07-12T06:24:21.077Z,990.51
2018-07-12T06:25:21.232Z,990.53
2018-07-12T06:26:21.386Z,990.54
2018-07-12T06:27:21.541Z,990.55
2018-07-12T06:28:21.700Z,990.54
2018-07-12T06:29:21.853Z,990.58
2018-07-12T06:30:22.011Z,990.55
2018-07-12T06:31:22.163Z,990.60
2018-07-12T06:32:22.320Z,990.58
2018-07-12T06:33:22.475Z,990.61
2018-07-12T06:34:22.628Z,990.59
2018-07-12T06:35:22.785Z,990.60
2018-07-12T06:36:22.942Z,990.59
2018-07-12T06:37:23.097Z,990.57
2018-07-12T06:38:23.257Z,990.56
2018-07-12T06:39:23.406Z,990.60
2018-07-12T06:40:23.564Z,990.60
2018-07-12T06:41:23.721Z,990.59
2018-07-12T06:42:23.878Z,990.57
2018-07-12T06:43:24.029Z,990.57
2018-07-12T06:44:24.187Z,990.55
2018-07-12T06:45:24.342Z,990.56
2018-07-12T06:46:24.500Z,990.55
2018-07-12T06:47:24.657Z,990.56
2018-07-12T06:48:24.811Z,990.56
2018-07-12T06:49:24.969Z,990.57
2018-07-12T06:50:25.123Z,990.58
2018-07-12T06:51:25.280Z,990.61
2018-07-12T06:52:25.434Z,990.65
2018-07-12T06:53:25.589Z,990.66
2018-07-12T06:54:25.746Z,990.66
2018-07-12T06:55:25.900Z,990.70
2018-07-12T06:56:26.057Z,990.67
2018-07-12T06:57:26.212Z,990.70
2018-07-12T06:58:26.368Z,990.64
2018-07-12T06:59:26.523Z,990.72
2018-07-12T07:00:26.679Z,990.66
2018-07-12T07:01:26.834Z,990.74
2018-07-12T07:02:26.989Z,990.76
2018-07-12T07:03:27.145Z,990.81
2018-07-12T07:04:27.300Z,990.80
2018-07-12T07:05:27.457Z,990.81
2018-07-12T07:06:27.613Z,990.75
2018-07-12T07:07:27.769Z,990.81
2018-07-12T07:08:27.924Z,990.81
2018-07-12T07:09:28.081Z,990.81
2018-07-12T07:10:28.238Z,990.75
2018-07-12T07:11:28.396Z,990.73
2018-07-12T07:12:28.552Z,990.72
2018-07-12T07:13:28.708Z,990.77
2018-07-12T07:14:28.864Z,990.71
2018-07-12T07:15:29.019Z,990.68
2018-07-12T07:16:29.177Z,990.75
2018-07-12T07:17:29.334Z,990.72
2018-07-12T07:18:29.489Z,990.68
2018-07-12T07:19:29.645Z,990.68
2018-07-12T07:20:29.802Z,990.66
2018-07-12T07:21:29.962Z,990.66
2018-07-12T07:22:30.119Z,990.78
2018-07-12T07:23:30.277Z,990.69
2018-07-12T07:24:30.436Z,990.79
2018-07-12T07:25:30.592Z,990.69
2018-07-12T07:26:30.747Z,990.73
2018-07-12T07:27:30.905Z,990.77
2018-07-12T07:28:31.067Z,990.73
2018-07-12T07:29:31.203Z,990.72
2018-07-12T07:30:31.360Z,990.82
2018-07-12T07:31:31.518Z,990.79
2018-07-12T07:32:31.693Z,990.75
2018-07-12T07:33:31.832Z,990.74
2018-07-12T07:34:31.989Z,990.75
2018-07-12T07:35:32.181Z,990.80
2018-07-12T07:36:32.303Z,990.81
2018-07-12T07:37:32.459Z,990.79
2018-07-12T07:38:32.618Z,990.86
2018-07-12T07:39:32.774Z,990.88
2018-07-12T07:40:32.931Z,990.83
2018-07-12T07:41:33.089Z,990.81
2018-07-12T07:42:33.246Z,990.86
2018-07-12T07:43:33.402Z,990.85
2018-07-12T07:44:33.559Z,990.86
2018-07-12T07:45:33.716Z,990.88
2018-07-12T07:46:33.874Z,990.89
2018-07-12T07:47:34.031Z,990.86
2018-07-12T07:48:34.189Z,990.85
2018-07-12T07:49:34.344Z,990.87
2018-07-12T07:50:34.503Z,990.89
2018-07-12T07:51:34.664Z,990.90
2018-07-12T07:52:34.817Z,990.85
2018-07-12T07:53:34.975Z,990.90
2018-07-12T07:54:35.134Z,990.87
2018-07-12T07:55:35.290Z,990.88
2018-07-12T07:56:35.449Z,990.89
2018-07-12T07:57:35.604Z,990.86
2018-07-12T07:58:35.763Z,990.88
2018-07-12T07:59:35.920Z,990.90
2018-07-12T08:00:36.078Z,990.89
2018-07-12T08:01:36.233Z,990.88
2018-07-12T08:02:36.391Z,990.86
2018-07-12T08:03:36.548Z,990.83
2018-07-12T08:04:36.703Z,990.83
2018-07-12T08:05:36.862Z,990.84
2018-07-12T08:06:37.017Z,990.84
2018-07-12T08:07:37.175Z,990.80
2018-07-12T08:08:37.333Z,990.82
2018-07-12T08:09:37.587Z,990.79
2018-07-12T08:10:37.649Z,990.81
2018-07-12T08:11:37.811Z,990.81
2018-07-12T08:12:37.965Z,990.80
2018-07-12T08:13:38.121Z,990.79
2018-07-12T08:14:38.281Z,990.81
2018-07-12T08:15:38.438Z,990.81
2018-07-12T08:16:38.594Z,990.87
2018-07-12T08:17:38.751Z,990.91
2018-07-12T08:18:38.910Z,990.85
2018-07-12T08:19:39.066Z,990.88
2018-07-12T08:20:39.228Z,990.86
2018-07-12T08:21:39.382Z,990.82
2018-07-12T08:22:39.535Z,990.88
2018-07-12T08:23:39.694Z,990.89
2018-07-12T08:24:39.850Z,990.86
2018-07-12T08:25:40.008Z,990.91
2018-07-12T08:26:40.166Z,990.87
2018-07-12T08:27:40.324Z,990.87
2018-07-12T08:28:40.481Z,990.86
2018-07-12T08:29:40.638Z,990.87
2018-07-12T08:30:40.796Z,990.84
2018-07-12T08:31:40.953Z,990.87
2018-07-12T08:32:41.112Z,990.85
2018-07-12T08:33:41.268Z,990.84
2018-07-12T08:34:41.426Z,990.87
2018-07-12T08:35:41.583Z,990.85
2018-07-12T08:36:41.740Z,990.89
2018-07-12T08:37:41.897Z,990.83
2018-07-12T08:38:42.052Z,990.91
2018-07-12T08:39:42.211Z,990.86
2018-07-12T08:40:42.369Z,990.89
2018-07-12T08:41:42.529Z,990.89
2018-07-12T08:42:42.739Z,990.92
2018-07-12T08:43:42.838Z,990.93
2018-07-12T08:44:42.996Z,990.92
2018-07-12T08:45:43.155Z,990.94
2018-07-12T08:46:43.313Z,990.93
2018-07-12T08:47:43.471Z,990.92
2018-07-12T08:48:43.630Z,990.91
2018-07-12T08:49:43.786Z,990.92
2018-07-12T08:50:43.943Z,990.89
2018-07-12T08:51:44.100Z,990.88
2018-07-12T08:52:44.258Z,990.87
2018-07-12T08:53:44.423Z,990.92
2018-07-12T08:54:44.629Z,990.91
2018-07-12T08:55:44.736Z,990.91
2018-07-12T08:56:44.895Z,990.92
2018-07-12T08:57:45.053Z,990.94
2018-07-12T08:58:45.214Z,991.00
2018-07-12T08:59:45.371Z,991.01
2018-07-12T09:00:45.530Z,991.02
2018-07-12T09:01:45.690Z,991.02
2018-07-12T09:02:45.917Z,991.07
2018-07-12T09:03:46.007Z,991.00
2018-07-12T09:04:46.172Z,991.01
2018-07-12T09:05:46.332Z,991.01
2018-07-12T09:06:46.501Z,990.96
2018-07-12T09:07:46.669Z,990.99
2018-07-12T09:08:46.826Z,990.99
2018-07-12T09:09:46.987Z,990.96
2018-07-12T09:10:47.158Z,990.99
2018-07-12T09:11:47.322Z,990.98
2018-07-12T09:12:47.489Z,990.96
2018-07-12T09:13:47.674Z,991.00
2018-07-12T09:14:47.812Z,990.96
2018-07-12T09:15:48.026Z,991.00
2018-07-12T09:16:48.132Z,991.01
2018-07-12T09:17:48.293Z,990.97
2018-07-12T09:18:48.450Z,991.02
2018-07-12T09:19:48.610Z,991.02
2018-07-12T09:20:48.770Z,991.00
2018-07-12T09:21:48.992Z,991.05
2018-07-12T09:22:49.089Z,991.00
2018-07-12T09:23:49.247Z,991.04
2018-07-12T09:24:49.405Z,991.07
2018-07-12T09:25:49.564Z,991.06
2018-07-12T09:26:49.723Z,991.04
2018-07-12T09:27:49.880Z,991.07
2018-07-12T09:28:50.066Z,991.08
2018-07-12T09:29:50.199Z,991.05
2018-07-12T09:30:50.362Z,991.04
2018-07-12T09:31:50.516Z,991.02
2018-07-12T09:32:50.675Z,991.08
2018-07-12T09:33:50.832Z,991.02
2018-07-12T09:34:51.008Z,991.09
2018-07-12T09:35:51.157Z,991.09
2018-07-12T09:36:51.319Z,991.08
2018-07-12T09:37:51.472Z,991.12
2018-07-12T09:38:51.630Z,991.04
2018-07-12T09:39:51.792Z,991.09
2018-07-12T09:40:51.949Z,991.11
2018-07-12T09:41:52.108Z,991.15
2018-07-12T09:42:52.336Z,991.12
2018-07-12T09:43:52.428Z,991.09
2018-07-12T09:44:52.585Z,991.10
2018-07-12T09:45:52.745Z,991.11
2018-07-12T09:46:52.904Z,991.07
2018-07-12T09:47:53.062Z,991.09
2018-07-12T09:48:53.243Z,991.12
2018-07-12T09:49:53.378Z,991.10
2018-07-12T09:50:53.536Z,991.11
2018-07-12T09:51:53.693Z,991.17
2018-07-12T09:52:53.853Z,991.16
2018-07-12T09:53:54.012Z,991.06
2018-07-12T09:54:54.172Z,991.14
2018-07-12T09:55:54.420Z,991.08
2018-07-12T09:56:54.491Z,991.07
2018-07-12T09:57:54.648Z,991.08
2018-07-12T09:58:54.805Z,991.11
2018-07-12T09:59:54.971Z,991.11
2018-07-12T10:00:55.128Z,991.11
2018-07-12T10:01:55.284Z,991.11
2018-07-12T10:02:55.446Z,991.12
2018-07-12T10:03:55.604Z,991.13
2018-07-12T10:04:55.762Z,991.19
2018-07-12T10:05:55.921Z,991.12
2018-07-12T10:06:56.080Z,991.10
2018-07-12T10:07:56.240Z,991.11
2018-07-12T10:08:56.402Z,991.14
2018-07-12T10:09:56.558Z,991.19
2018-07-12T10:10:56.719Z,991.10
2018-07-12T10:11:56.877Z,991.14
2018-07-12T10:12:57.038Z,991.09
2018-07-12T10:13:57.193Z,991.11
2018-07-12T10:14:57.356Z,991.08
2018-07-12T10:15:57.516Z,991.09
2018-07-12T10:16:57.671Z,991.09
2018-07-12T10:17:57.829Z,991.10
2018-07-12T10:18:57.990Z,991.13
2018-07-12T10:19:58.190Z,991.16
2018-07-12T10:20:58.313Z,991.12
2018-07-12T10:21:58.472Z,991.14
2018-07-12T10:22:58.630Z,991.17
2018-07-12T10:23:58.793Z,991.18
2018-07-12T10:24:58.947Z,991.14
2018-07-12T10:25:59.108Z,991.16
2018-07-12T10:26:59.266Z,991.13
2018-07-12T10:27:59.426Z,991.23
2018-07-12T10:28:59.582Z,991.16
2018-07-12T10:29:59.744Z,991.08
2018-07-12T10:30:59.904Z,991.12
2018-07-12T10:32:00.063Z,991.12
2018-07-12T10:33:00.222Z,991.13
2018-07-12T10:34:00.380Z,991.18
2018-07-12T10:35:00.543Z,991.15
2018-07-12T10:36:00.704Z,991.18
2018-07-12T10:37:00.864Z,991.18
2018-07-12T10:38:01.035Z,991.18
2018-07-12T10:39:01.201Z,991.17
2018-07-12T10:40:01.358Z,991.19
2018-07-12T10:41:01.522Z,991.20
2018-07-12T10:42:01.678Z,991.21
2018-07-12T10:43:01.839Z,991.24
2018-07-12T10:44:01.999Z,991.29
2018-07-12T10:45:02.158Z,991.32
2018-07-12T10:46:02.319Z,991.24
2018-07-12T10:47:02.477Z,991.24
2018-07-12T10:48:02.637Z,991.27
2018-07-12T10:49:02.800Z,991.17
2018-07-12T10:50:02.960Z,991.15
2018-07-12T10:51:03.121Z,991.18
2018-07-12T10:52:03.281Z,991.15
2018-07-12T10:53:03.440Z,991.14
2018-07-12T10:54:03.601Z,991.20
2018-07-12T10:55:03.760Z,991.17
2018-07-12T10:56:03.928Z,991.18
2018-07-12T10:57:04.081Z,991.15
2018-07-12T10:58:04.242Z,991.21
2018-07-12T10:59:04.485Z,991.18
2018-07-12T11:00:04.563Z,991.20
2018-07-12T11:01:04.723Z,991.23
2018-07-12T11:02:04.881Z,991.26
2018-07-12T11:03:05.042Z,991.15
2018-07-12T11:04:05.202Z,991.17
2018-07-12T11:05:05.363Z,991.17
2018-07-12T11:06:05.523Z,991.16
2018-07-12T11:07:05.682Z,991.15
2018-07-12T11:08:05.844Z,991.14
2018-07-12T11:09:06.029Z,991.12
2018-07-12T11:10:06.164Z,991.13
2018-07-12T11:11:06.324Z,991.08
2018-07-12T11:12:06.485Z,991.13
2018-07-12T11:13:06.645Z,991.11
2018-07-12T11:14:06.806Z,991.12
2018-07-12T11:15:06.965Z,991.11
2018-07-12T11:16:07.127Z,991.15
2018-07-12T11:17:07.288Z,991.15
2018-07-12T11:18:07.446Z,991.08
2018-07-12T11:19:07.606Z,991.04
2018-07-12T11:20:07.769Z,991.07
2018-07-12T11:21:07.987Z,991.04
2018-07-12T11:22:08.088Z,991.05
2018-07-12T11:23:08.250Z,991.08
2018-07-12T11:24:08.410Z,991.07
2018-07-12T11:25:08.568Z,991.06
2018-07-12T11:26:08.729Z,991.09
2018-07-12T11:27:08.888Z,991.11
2018-07-12T11:28:09.068Z,991.08
2018-07-12T11:29:09.207Z,991.12
2018-07-12T11:30:09.371Z,991.09
2018-07-12T11:31:09.530Z,991.15
2018-07-12T11:32:09.690Z,991.10
2018-07-12T11:33:09.849Z,991.10
2018-07-12T11:34:10.008Z,991.08
2018-07-12T11:35:10.169Z,991.06
2018-07-12T11:36:10.331Z,991.06
2018-07-12T11:37:10.563Z,991.06
2018-07-12T11:38:10.651Z,991.08
2018-07-12T11:39:10.810Z,991.06
2018-07-12T11:40:10.970Z,991.07
2018-07-12T11:41:11.130Z,991.06
2018-07-12T11:42:11.292Z,991.05
2018-07-12T11:43:11.451Z,991.05
2018-07-12T11:44:11.612Z,991.03
2018-07-12T11:45:11.773Z,991.02
2018-07-12T11:46:11.933Z,990.98
2018-07-12T11:47:12.098Z,990.98
2018-07-12T11:48:12.257Z,991.05
2018-07-12T11:49:12.418Z,990.99
2018-07-12T11:50:12.576Z,990.97
2018-07-12T11:51:12.737Z,990.98
2018-07-12T11:52:12.899Z,990.97
2018-07-12T11:53:13.058Z,990.94
2018-07-12T11:54:13.221Z,990.94
2018-07-12T11:55:13.383Z,991.00
2018-07-12T11:56:13.542Z,990.96
2018-07-12T11:57:13.703Z,990.95
2018-07-12T11:58:13.864Z,990.96
2018-07-12T11:59:14.024Z,990.93
2018-07-12T12:00:14.183Z,990.94
2018-07-12T12:01:14.386Z,990.98
2018-07-12T12:02:14.507Z,990.98
2018-07-12T12:03:14.667Z,991.06
2018-07-12T12:04:14.821Z,991.02
2018-07-12T12:05:14.983Z,991.05
2018-07-12T12:06:15.143Z,991.07
2018-07-12T12:07:15.303Z,991.06
2018-07-12T12:08:15.461Z,991.10
2018-07-12T12:09:15.622Z,991.08
2018-07-12T12:10:15.780Z,991.05
2018-07-12T12:11:15.943Z,991.11
2018-07-12T12:12:16.104Z,991.07
2018-07-12T12:13:16.262Z,991.03
2018-07-12T12:14:16.423Z,991.01
2018-07-12T12:15:16.580Z,990.94
2018-07-12T12:16:16.748Z,990.89
2018-07-12T12:17:16.904Z,990.86
2018-07-12T12:18:17.068Z,990.90
2018-07-12T12:19:17.249Z,990.90
2018-07-12T12:20:17.387Z,990.91
2018-07-12T12:21:17.549Z,990.92
2018-07-12T12:22:17.710Z,990.91
2018-07-12T12:23:17.870Z,990.90
2018-07-12T12:24:18.033Z,990.96
2018-07-12T12:25:18.193Z,990.90
2018-07-12T12:26:18.354Z,990.96
2018-07-12T12:27:18.520Z,990.98
2018-07-12T12:28:18.677Z,990.91
2018-07-12T12:29:18.842Z,990.90
2018-07-12T12:30:19.007Z,990.90